sensor_id;sensor_type;location;lat;lon;timestamp;temperature;humidity
70826;SHT31;58446;41.490;22.098;2024-03-08T00:02:23;10.61;71.47
70826;SHT31;58446;41.490;22.098;2024-03-08T00:04:49;10.58;71.93
70826;SHT31;58446;41.490;22.098;2024-03-08T00:07:15;10.60;71.48
70826;SHT31;58446;41.490;22.098;2024-03-08T00:09:41;10.82;71.26
70826;SHT31;58446;41.490;22.098;2024-03-08T00:12:06;11.01;70.70
70826;SHT31;58446;41.490;22.098;2024-03-08T00:14:32;11.12;70.27
70826;SHT31;58446;41.490;22.098;2024-03-08T00:16:58;11.05;70.44
70826;SHT31;58446;41.490;22.098;2024-03-08T00:19:24;11.15;70.11
70826;SHT31;58446;41.490;22.098;2024-03-08T00:21:50;10.87;70.48
70826;SHT31;58446;41.490;22.098;2024-03-08T00:24:15;10.18;71.08
70826;SHT31;58446;41.490;22.098;2024-03-08T00:26:41;9.65;71.67
70826;SHT31;58446;41.490;22.098;2024-03-08T00:29:09;9.93;73.38
70826;SHT31;58446;41.490;22.098;2024-03-08T00:31:35;9.74;71.87
70826;SHT31;58446;41.490;22.098;2024-03-08T00:34:01;10.33;72.54
70826;SHT31;58446;41.490;22.098;2024-03-08T00:36:26;10.71;71.02
70826;SHT31;58446;41.490;22.098;2024-03-08T00:38:55;10.91;70.10
70826;SHT31;58446;41.490;22.098;2024-03-08T00:41:21;10.98;69.66
70826;SHT31;58446;41.490;22.098;2024-03-08T00:43:46;10.88;69.25
70826;SHT31;58446;41.490;22.098;2024-03-08T00:46:13;10.94;69.43
70826;SHT31;58446;41.490;22.098;2024-03-08T00:48:40;10.98;69.06
70826;SHT31;58446;41.490;22.098;2024-03-08T00:51:08;11.12;68.56
70826;SHT31;58446;41.490;22.098;2024-03-08T00:53:34;11.01;68.81
70826;SHT31;58446;41.490;22.098;2024-03-08T00:56:00;11.05;68.58
70826;SHT31;58446;41.490;22.098;2024-03-08T00:58:25;11.12;68.45
70826;SHT31;58446;41.490;22.098;2024-03-08T01:00:51;11.12;68.33
70826;SHT31;58446;41.490;22.098;2024-03-08T01:03:17;11.05;68.37
70826;SHT31;58446;41.490;22.098;2024-03-08T01:05:42;10.98;68.68
70826;SHT31;58446;41.490;22.098;2024-03-08T01:08:09;10.67;69.13
70826;SHT31;58446;41.490;22.098;2024-03-08T01:10:37;10.63;69.81
70826;SHT31;58446;41.490;22.098;2024-03-08T01:13:03;10.92;68.97
70826;SHT31;58446;41.490;22.098;2024-03-08T01:15:28;10.99;68.78
70826;SHT31;58446;41.490;22.098;2024-03-08T01:17:54;10.94;68.56
70826;SHT31;58446;41.490;22.098;2024-03-08T01:20:20;10.82;68.84
70826;SHT31;58446;41.490;22.098;2024-03-08T01:22:46;10.88;68.88
70826;SHT31;58446;41.490;22.098;2024-03-08T01:25:12;10.79;69.15
70826;SHT31;58446;41.490;22.098;2024-03-08T01:27:38;10.65;69.57
70826;SHT31;58446;41.490;22.098;2024-03-08T01:30:04;10.57;69.82
70826;SHT31;58446;41.490;22.098;2024-03-08T01:32:30;10.78;69.43
70826;SHT31;58446;41.490;22.098;2024-03-08T01:34:55;10.79;69.24
70826;SHT31;58446;41.490;22.098;2024-03-08T01:37:21;10.74;69.29
70826;SHT31;58446;41.490;22.098;2024-03-08T01:39:46;10.46;69.86
70826;SHT31;58446;41.490;22.098;2024-03-08T01:42:13;10.09;70.79
70826;SHT31;58446;41.490;22.098;2024-03-08T01:44:40;10.27;71.01
70826;SHT31;58446;41.490;22.098;2024-03-08T01:47:06;10.29;71.00
70826;SHT31;58446;41.490;22.098;2024-03-08T01:49:32;10.38;70.54
70826;SHT31;58446;41.490;22.098;2024-03-08T01:51:59;10.30;70.82
70826;SHT31;58446;41.490;22.098;2024-03-08T01:54:25;10.53;70.28
70826;SHT31;58446;41.490;22.098;2024-03-08T01:56:52;10.60;69.96
70826;SHT31;58446;41.490;22.098;2024-03-08T01:59:18;10.63;69.92
70826;SHT31;58446;41.490;22.098;2024-03-08T02:01:44;10.47;70.22
70826;SHT31;58446;41.490;22.098;2024-03-08T02:04:10;10.46;70.42
70826;SHT31;58446;41.490;22.098;2024-03-08T02:06:36;10.56;70.20
70826;SHT31;58446;41.490;22.098;2024-03-08T02:09:03;10.51;70.14
70826;SHT31;58446;41.490;22.098;2024-03-08T02:11:33;10.23;70.81
70826;SHT31;58446;41.490;22.098;2024-03-08T02:13:59;9.96;71.75
70826;SHT31;58446;41.490;22.098;2024-03-08T02:16:25;9.83;72.35
70826;SHT31;58446;41.490;22.098;2024-03-08T02:18:51;10.09;71.58
70826;SHT31;58446;41.490;22.098;2024-03-08T02:21:17;10.23;71.01
70826;SHT31;58446;41.490;22.098;2024-03-08T02:23:46;10.21;70.92
70826;SHT31;58446;41.490;22.098;2024-03-08T02:26:12;10.24;70.76
70826;SHT31;58446;41.490;22.098;2024-03-08T02:28:38;10.37;70.37
70826;SHT31;58446;41.490;22.098;2024-03-08T02:31:04;10.27;70.52
70826;SHT31;58446;41.490;22.098;2024-03-08T02:33:33;10.18;70.66
70826;SHT31;58446;41.490;22.098;2024-03-08T02:35:59;10.10;71.05
70826;SHT31;58446;41.490;22.098;2024-03-08T02:38:25;10.00;71.12
70826;SHT31;58446;41.490;22.098;2024-03-08T02:40:52;9.97;71.13
70826;SHT31;58446;41.490;22.098;2024-03-08T02:43:19;10.07;71.07
70826;SHT31;58446;41.490;22.098;2024-03-08T02:45:45;10.27;70.21
70826;SHT31;58446;41.490;22.098;2024-03-08T02:48:12;10.29;70.04
70826;SHT31;58446;41.490;22.098;2024-03-08T02:50:38;10.32;69.66
70826;SHT31;58446;41.490;22.098;2024-03-08T02:53:06;10.16;69.60
70826;SHT31;58446;41.490;22.098;2024-03-08T02:55:32;10.05;69.81
70826;SHT31;58446;41.490;22.098;2024-03-08T02:58:04;9.39;69.59
70826;SHT31;58446;41.490;22.098;2024-03-08T03:00:30;9.13;71.54
70826;SHT31;58446;41.490;22.098;2024-03-08T03:02:57;9.30;71.76
70826;SHT31;58446;41.490;22.098;2024-03-08T03:05:23;9.25;71.84
70826;SHT31;58446;41.490;22.098;2024-03-08T03:07:50;9.44;71.41
70826;SHT31;58446;41.490;22.098;2024-03-08T03:10:19;9.49;71.38
70826;SHT31;58446;41.490;22.098;2024-03-08T03:12:45;9.65;71.02
70826;SHT31;58446;41.490;22.098;2024-03-08T03:15:12;9.44;70.72
70826;SHT31;58446;41.490;22.098;2024-03-08T03:17:38;9.59;71.23
70826;SHT31;58446;41.490;22.098;2024-03-08T03:20:06;9.20;71.16
70826;SHT31;58446;41.490;22.098;2024-03-08T03:22:36;8.24;74.38
70826;SHT31;58446;41.490;22.098;2024-03-08T03:25:03;8.87;73.76
70826;SHT31;58446;41.490;22.098;2024-03-08T03:27:32;9.21;71.94
70826;SHT31;58446;41.490;22.098;2024-03-08T03:29:58;9.34;72.17
70826;SHT31;58446;41.490;22.098;2024-03-08T03:32:23;9.45;71.67
70826;SHT31;58446;41.490;22.098;2024-03-08T03:34:49;9.45;71.40
70826;SHT31;58446;41.490;22.098;2024-03-08T03:37:19;9.34;71.36
70826;SHT31;58446;41.490;22.098;2024-03-08T03:39:45;9.45;71.23
70826;SHT31;58446;41.490;22.098;2024-03-08T03:42:19;9.63;70.70
70826;SHT31;58446;41.490;22.098;2024-03-08T03:44:48;9.76;69.99
70826;SHT31;58446;41.490;22.098;2024-03-08T03:47:15;9.81;69.70
70826;SHT31;58446;41.490;22.098;2024-03-08T03:49:41;9.74;69.70
70826;SHT31;58446;41.490;22.098;2024-03-08T03:52:09;9.75;69.48
70826;SHT31;58446;41.490;22.098;2024-03-08T03:54:35;9.72;69.52
70826;SHT31;58446;41.490;22.098;2024-03-08T03:57:02;9.68;69.57
70826;SHT31;58446;41.490;22.098;2024-03-08T03:59:28;9.59;69.67
70826;SHT31;58446;41.490;22.098;2024-03-08T04:01:54;9.52;70.04
70826;SHT31;58446;41.490;22.098;2024-03-08T04:04:20;9.34;70.54
70826;SHT31;58446;41.490;22.098;2024-03-08T04:06:46;8.70;71.25
70826;SHT31;58446;41.490;22.098;2024-03-08T04:09:12;9.00;71.97
70826;SHT31;58446;41.490;22.098;2024-03-08T04:11:38;9.27;71.15
70826;SHT31;58446;41.490;22.098;2024-03-08T04:14:04;9.44;70.35
70826;SHT31;58446;41.490;22.098;2024-03-08T04:16:31;9.49;70.10
70826;SHT31;58446;41.490;22.098;2024-03-08T04:19:00;9.46;70.23
70826;SHT31;58446;41.490;22.098;2024-03-08T04:21:32;9.42;70.15
70826;SHT31;58446;41.490;22.098;2024-03-08T04:23:58;9.38;70.17
70826;SHT31;58446;41.490;22.098;2024-03-08T04:26:23;9.37;70.14
70826;SHT31;58446;41.490;22.098;2024-03-08T04:28:49;9.39;69.98
70826;SHT31;58446;41.490;22.098;2024-03-08T04:31:14;9.18;70.08
70826;SHT31;58446;41.490;22.098;2024-03-08T04:33:41;9.11;70.51
70826;SHT31;58446;41.490;22.098;2024-03-08T04:36:07;9.10;70.24
70826;SHT31;58446;41.490;22.098;2024-03-08T04:38:33;9.00;70.53
70826;SHT31;58446;41.490;22.098;2024-03-08T04:41:00;8.76;70.51
70826;SHT31;58446;41.490;22.098;2024-03-08T04:43:28;8.91;70.81
70826;SHT31;58446;41.490;22.098;2024-03-08T04:45:55;8.97;70.72
70826;SHT31;58446;41.490;22.098;2024-03-08T04:48:21;8.94;70.55
70826;SHT31;58446;41.490;22.098;2024-03-08T04:50:47;8.96;70.56
70826;SHT31;58446;41.490;22.098;2024-03-08T04:53:12;8.84;70.80
70826;SHT31;58446;41.490;22.098;2024-03-08T04:55:39;8.83;70.79
70826;SHT31;58446;41.490;22.098;2024-03-08T04:58:04;9.06;70.39
70826;SHT31;58446;41.490;22.098;2024-03-08T05:00:33;9.20;70.08
70826;SHT31;58446;41.490;22.098;2024-03-08T05:02:59;9.31;69.50
70826;SHT31;58446;41.490;22.098;2024-03-08T05:05:24;9.27;69.35
70826;SHT31;58446;41.490;22.098;2024-03-08T05:07:51;9.10;69.09
70826;SHT31;58446;41.490;22.098;2024-03-08T05:10:17;8.79;70.44
70826;SHT31;58446;41.490;22.098;2024-03-08T05:12:43;8.99;69.68
70826;SHT31;58446;41.490;22.098;2024-03-08T05:15:09;9.11;69.21
70826;SHT31;58446;41.490;22.098;2024-03-08T05:17:34;9.10;69.11
70826;SHT31;58446;41.490;22.098;2024-03-08T05:20:00;8.46;70.44
70826;SHT31;58446;41.490;22.098;2024-03-08T05:22:26;8.80;70.38
70826;SHT31;58446;41.490;22.098;2024-03-08T05:24:52;9.08;69.45
70826;SHT31;58446;41.490;22.098;2024-03-08T05:27:17;8.65;70.06
70826;SHT31;58446;41.490;22.098;2024-03-08T05:29:43;8.88;70.29
70826;SHT31;58446;41.490;22.098;2024-03-08T05:32:09;9.21;69.11
70826;SHT31;58446;41.490;22.098;2024-03-08T05:34:35;9.37;68.28
70826;SHT31;58446;41.490;22.098;2024-03-08T05:37:01;9.54;67.66
70826;SHT31;58446;41.490;22.098;2024-03-08T05:39:27;9.90;66.75
70826;SHT31;58446;41.490;22.098;2024-03-08T05:41:53;10.65;64.40
70826;SHT31;58446;41.490;22.098;2024-03-08T05:44:20;10.74;64.05
70826;SHT31;58446;41.490;22.098;2024-03-08T05:46:46;11.32;62.84
70826;SHT31;58446;41.490;22.098;2024-03-08T05:49:12;11.46;61.98
70826;SHT31;58446;41.490;22.098;2024-03-08T05:51:39;12.22;60.02
70826;SHT31;58446;41.490;22.098;2024-03-08T05:54:07;12.53;59.32
70826;SHT31;58446;41.490;22.098;2024-03-08T05:56:37;12.80;58.24
70826;SHT31;58446;41.490;22.098;2024-03-08T05:59:03;13.03;57.51
70826;SHT31;58446;41.490;22.098;2024-03-08T06:01:29;13.90;55.24
70826;SHT31;58446;41.490;22.098;2024-03-08T06:03:55;14.32;54.49
70826;SHT31;58446;41.490;22.098;2024-03-08T06:06:25;14.39;54.04
70826;SHT31;58446;41.490;22.098;2024-03-08T06:08:51;14.94;52.54
70826;SHT31;58446;41.490;22.098;2024-03-08T06:11:19;14.70;53.16
70826;SHT31;58446;41.490;22.098;2024-03-08T06:13:46;15.24;52.12
70826;SHT31;58446;41.490;22.098;2024-03-08T06:16:12;15.53;50.96
70826;SHT31;58446;41.490;22.098;2024-03-08T06:18:38;15.40;51.15
70826;SHT31;58446;41.490;22.098;2024-03-08T06:21:07;14.70;53.83
70826;SHT31;58446;41.490;22.098;2024-03-08T06:23:35;14.73;53.40
70826;SHT31;58446;41.490;22.098;2024-03-08T06:26:09;14.51;53.67
70826;SHT31;58446;41.490;22.098;2024-03-08T06:28:34;14.19;54.70
70826;SHT31;58446;41.490;22.098;2024-03-08T06:31:01;14.29;55.37
70826;SHT31;58446;41.490;22.098;2024-03-08T06:33:27;14.04;56.84
70826;SHT31;58446;41.490;22.098;2024-03-08T06:35:54;13.58;57.68
70826;SHT31;58446;41.490;22.098;2024-03-08T06:38:25;13.77;56.27
70826;SHT31;58446;41.490;22.098;2024-03-08T06:40:51;13.54;57.29
70826;SHT31;58446;41.490;22.098;2024-03-08T06:43:17;13.57;58.18
70826;SHT31;58446;41.490;22.098;2024-03-08T06:45:47;13.50;58.52
70826;SHT31;58446;41.490;22.098;2024-03-08T06:48:18;13.37;58.39
70826;SHT31;58446;41.490;22.098;2024-03-08T06:50:45;13.50;59.24
70826;SHT31;58446;41.490;22.098;2024-03-08T06:53:11;13.48;58.65
70826;SHT31;58446;41.490;22.098;2024-03-08T06:55:37;13.27;59.08
70826;SHT31;58446;41.490;22.098;2024-03-08T06:58:03;13.43;60.08
70826;SHT31;58446;41.490;22.098;2024-03-08T07:00:29;13.65;59.44
70826;SHT31;58446;41.490;22.098;2024-03-08T07:02:56;13.72;58.64
70826;SHT31;58446;41.490;22.098;2024-03-08T07:05:27;13.89;58.03
70826;SHT31;58446;41.490;22.098;2024-03-08T07:07:53;13.74;57.37
70826;SHT31;58446;41.490;22.098;2024-03-08T07:10:22;13.92;57.78
70826;SHT31;58446;41.490;22.098;2024-03-08T07:12:59;13.96;56.93
70826;SHT31;58446;41.490;22.098;2024-03-08T07:15:28;14.09;56.94
70826;SHT31;58446;41.490;22.098;2024-03-08T07:18:09;14.39;56.44
70826;SHT31;58446;41.490;22.098;2024-03-08T07:20:41;14.19;56.09
70826;SHT31;58446;41.490;22.098;2024-03-08T07:23:09;14.46;54.73
70826;SHT31;58446;41.490;22.098;2024-03-08T07:25:39;14.40;53.94
70826;SHT31;58446;41.490;22.098;2024-03-08T07:28:12;14.47;54.38
70826;SHT31;58446;41.490;22.098;2024-03-08T07:30:40;14.57;55.53
70826;SHT31;58446;41.490;22.098;2024-03-08T07:33:11;14.83;55.48
70826;SHT31;58446;41.490;22.098;2024-03-08T07:35:39;15.28;53.78
70826;SHT31;58446;41.490;22.098;2024-03-08T07:38:13;15.45;52.62
70826;SHT31;58446;41.490;22.098;2024-03-08T07:40:40;15.60;51.63
70826;SHT31;58446;41.490;22.098;2024-03-08T07:43:10;15.38;50.42
70826;SHT31;58446;41.490;22.098;2024-03-08T07:45:39;14.98;53.15
70826;SHT31;58446;41.490;22.098;2024-03-08T07:48:06;15.11;53.72
70826;SHT31;58446;41.490;22.098;2024-03-08T07:50:37;15.24;53.28
70826;SHT31;58446;41.490;22.098;2024-03-08T07:53:04;14.94;51.97
70826;SHT31;58446;41.490;22.098;2024-03-08T07:55:32;15.04;52.52
70826;SHT31;58446;41.490;22.098;2024-03-08T07:57:58;15.25;53.53
70826;SHT31;58446;41.490;22.098;2024-03-08T08:00:24;15.25;53.86
70826;SHT31;58446;41.490;22.098;2024-03-08T08:02:53;14.67;54.69
70826;SHT31;58446;41.490;22.098;2024-03-08T08:05:19;14.55;55.97
70826;SHT31;58446;41.490;22.098;2024-03-08T08:07:45;14.73;54.87
70826;SHT31;58446;41.490;22.098;2024-03-08T08:10:12;15.17;54.31
70826;SHT31;58446;41.490;22.098;2024-03-08T08:12:44;14.78;54.57
70826;SHT31;58446;41.490;22.098;2024-03-08T08:15:10;14.91;54.38
70826;SHT31;58446;41.490;22.098;2024-03-08T08:17:36;14.98;53.52
70826;SHT31;58446;41.490;22.098;2024-03-08T08:20:02;15.15;52.39
70826;SHT31;58446;41.490;22.098;2024-03-08T08:22:31;15.24;53.71
70826;SHT31;58446;41.490;22.098;2024-03-08T08:24:56;15.34;53.02
70826;SHT31;58446;41.490;22.098;2024-03-08T08:27:22;15.38;53.29
70826;SHT31;58446;41.490;22.098;2024-03-08T08:29:48;15.45;53.56
70826;SHT31;58446;41.490;22.098;2024-03-08T08:32:15;15.73;52.11
70826;SHT31;58446;41.490;22.098;2024-03-08T08:34:40;15.42;53.11
70826;SHT31;58446;41.490;22.098;2024-03-08T08:37:07;14.74;54.22
70826;SHT31;58446;41.490;22.098;2024-03-08T08:39:35;14.77;54.61
70826;SHT31;58446;41.490;22.098;2024-03-08T08:42:01;15.05;54.11
70826;SHT31;58446;41.490;22.098;2024-03-08T08:44:29;15.43;54.77
70826;SHT31;58446;41.490;22.098;2024-03-08T08:46:56;15.65;52.95
70826;SHT31;58446;41.490;22.098;2024-03-08T08:49:21;15.39;52.99
70826;SHT31;58446;41.490;22.098;2024-03-08T08:51:50;15.45;54.89
70826;SHT31;58446;41.490;22.098;2024-03-08T08:54:16;15.69;54.43
70826;SHT31;58446;41.490;22.098;2024-03-08T08:56:43;15.21;53.72
70826;SHT31;58446;41.490;22.098;2024-03-08T08:59:14;15.19;54.55
70826;SHT31;58446;41.490;22.098;2024-03-08T09:01:45;15.22;53.61
70826;SHT31;58446;41.490;22.098;2024-03-08T09:04:12;14.80;54.35
70826;SHT31;58446;41.490;22.098;2024-03-08T09:06:39;14.84;55.75
70826;SHT31;58446;41.490;22.098;2024-03-08T09:09:09;15.12;53.88
70826;SHT31;58446;41.490;22.098;2024-03-08T09:11:37;14.80;54.17
70826;SHT31;58446;41.490;22.098;2024-03-08T09:14:07;14.02;55.84
70826;SHT31;58446;41.490;22.098;2024-03-08T09:16:33;13.72;57.18
70826;SHT31;58446;41.490;22.098;2024-03-08T09:18:58;13.92;56.44
70826;SHT31;58446;41.490;22.098;2024-03-08T09:21:27;14.15;55.71
70826;SHT31;58446;41.490;22.098;2024-03-08T09:23:53;14.43;53.01
70826;SHT31;58446;41.490;22.098;2024-03-08T09:26:19;14.56;52.22
70826;SHT31;58446;41.490;22.098;2024-03-08T09:28:45;14.70;53.38
70826;SHT31;58446;41.490;22.098;2024-03-08T09:31:11;15.09;53.53
70826;SHT31;58446;41.490;22.098;2024-03-08T09:33:37;15.04;54.08
70826;SHT31;58446;41.490;22.098;2024-03-08T09:36:06;15.49;52.67
70826;SHT31;58446;41.490;22.098;2024-03-08T09:38:33;15.62;50.27
70826;SHT31;58446;41.490;22.098;2024-03-08T09:41:01;15.21;52.76
70826;SHT31;58446;41.490;22.098;2024-03-08T09:43:29;15.38;52.46
70826;SHT31;58446;41.490;22.098;2024-03-08T09:45:57;15.38;52.50
70826;SHT31;58446;41.490;22.098;2024-03-08T09:48:23;15.46;51.77
70826;SHT31;58446;41.490;22.098;2024-03-08T09:50:48;15.46;51.47
70826;SHT31;58446;41.490;22.098;2024-03-08T09:53:15;15.65;49.19
70826;SHT31;58446;41.490;22.098;2024-03-08T09:55:42;15.65;49.87
70826;SHT31;58446;41.490;22.098;2024-03-08T09:58:11;15.73;51.36
70826;SHT31;58446;41.490;22.098;2024-03-08T10:00:47;15.82;50.89
70826;SHT31;58446;41.490;22.098;2024-03-08T10:03:13;15.79;51.68
70826;SHT31;58446;41.490;22.098;2024-03-08T10:05:41;15.55;52.30
70826;SHT31;58446;41.490;22.098;2024-03-08T10:08:07;15.17;52.61
70826;SHT31;58446;41.490;22.098;2024-03-08T10:10:36;14.99;52.90
70826;SHT31;58446;41.490;22.098;2024-03-08T10:13:07;15.17;51.34
70826;SHT31;58446;41.490;22.098;2024-03-08T10:15:33;15.42;51.87
70826;SHT31;58446;41.490;22.098;2024-03-08T10:17:59;15.49;51.85
70826;SHT31;58446;41.490;22.098;2024-03-08T10:20:25;15.66;48.62
70826;SHT31;58446;41.490;22.098;2024-03-08T10:22:54;15.71;49.52
70826;SHT31;58446;41.490;22.098;2024-03-08T10:25:19;15.97;50.26
70826;SHT31;58446;41.490;22.098;2024-03-08T10:27:45;15.77;47.52
70826;SHT31;58446;41.490;22.098;2024-03-08T10:30:15;15.86;48.89
70826;SHT31;58446;41.490;22.098;2024-03-08T10:32:47;15.85;47.50
70826;SHT31;58446;41.490;22.098;2024-03-08T10:35:13;15.48;47.67
70826;SHT31;58446;41.490;22.098;2024-03-08T10:37:45;15.59;48.22
70826;SHT31;58446;41.490;22.098;2024-03-08T10:40:20;15.49;49.62
70826;SHT31;58446;41.490;22.098;2024-03-08T10:42:52;15.50;49.66
70826;SHT31;58446;41.490;22.098;2024-03-08T10:45:34;15.60;49.43
70826;SHT31;58446;41.490;22.098;2024-03-08T10:50:51;15.74;50.06
70826;SHT31;58446;41.490;22.098;2024-03-08T10:53:18;15.97;49.93
70826;SHT31;58446;41.490;22.098;2024-03-08T10:55:47;15.97;49.55
70826;SHT31;58446;41.490;22.098;2024-03-08T10:58:15;16.01;49.30
70826;SHT31;58446;41.490;22.098;2024-03-08T11:00:42;16.14;49.60
70826;SHT31;58446;41.490;22.098;2024-03-08T11:06:21;16.55;48.79
70826;SHT31;58446;41.490;22.098;2024-03-08T11:08:48;16.31;48.44
70826;SHT31;58446;41.490;22.098;2024-03-08T11:13:58;15.96;48.10
70826;SHT31;58446;41.490;22.098;2024-03-08T11:21:36;15.62;48.83
70826;SHT31;58446;41.490;22.098;2024-03-08T11:24:11;15.80;49.42
70826;SHT31;58446;41.490;22.098;2024-03-08T11:26:42;15.73;49.50
70826;SHT31;58446;41.490;22.098;2024-03-08T11:32:08;15.85;46.51
70826;SHT31;58446;41.490;22.098;2024-03-08T11:34:40;15.73;45.80
70826;SHT31;58446;41.490;22.098;2024-03-08T11:37:19;15.86;46.36
70826;SHT31;58446;41.490;22.098;2024-03-08T11:39:53;15.67;45.60
70826;SHT31;58446;41.490;22.098;2024-03-08T11:42:24;15.50;46.19
70826;SHT31;58446;41.490;22.098;2024-03-08T11:44:52;15.43;45.83
70826;SHT31;58446;41.490;22.098;2024-03-08T11:47:18;15.50;47.04
70826;SHT31;58446;41.490;22.098;2024-03-08T11:49:45;15.53;46.65
70826;SHT31;58446;41.490;22.098;2024-03-08T11:52:13;15.38;46.30
70826;SHT31;58446;41.490;22.098;2024-03-08T11:54:43;15.52;47.21
70826;SHT31;58446;41.490;22.098;2024-03-08T11:57:18;15.58;47.13
70826;SHT31;58446;41.490;22.098;2024-03-08T11:59:50;15.56;48.92
70826;SHT31;58446;41.490;22.098;2024-03-08T12:02:16;15.40;47.94
70826;SHT31;58446;41.490;22.098;2024-03-08T12:04:43;15.48;49.00
70826;SHT31;58446;41.490;22.098;2024-03-08T12:07:11;15.67;47.05
70826;SHT31;58446;41.490;22.098;2024-03-08T12:09:40;15.97;46.78
70826;SHT31;58446;41.490;22.098;2024-03-08T12:12:07;16.27;44.52
70826;SHT31;58446;41.490;22.098;2024-03-08T12:14:33;16.45;45.42
70826;SHT31;58446;41.490;22.098;2024-03-08T12:16:59;16.49;45.07
70826;SHT31;58446;41.490;22.098;2024-03-08T12:19:28;16.35;45.78
70826;SHT31;58446;41.490;22.098;2024-03-08T12:21:55;16.52;42.04
70826;SHT31;58446;41.490;22.098;2024-03-08T12:24:20;16.41;44.78
70826;SHT31;58446;41.490;22.098;2024-03-08T12:26:47;16.47;44.87
70826;SHT31;58446;41.490;22.098;2024-03-08T12:31:59;16.41;44.39
70826;SHT31;58446;41.490;22.098;2024-03-08T12:34:30;16.10;45.38
70826;SHT31;58446;41.490;22.098;2024-03-08T12:36:58;16.40;43.91
70826;SHT31;58446;41.490;22.098;2024-03-08T12:39:24;16.54;42.92
70826;SHT31;58446;41.490;22.098;2024-03-08T12:41:53;16.67;43.94
70826;SHT31;58446;41.490;22.098;2024-03-08T12:44:20;16.68;44.16
70826;SHT31;58446;41.490;22.098;2024-03-08T12:46:47;16.78;44.15
70826;SHT31;58446;41.490;22.098;2024-03-08T12:49:14;16.86;43.71
70826;SHT31;58446;41.490;22.098;2024-03-08T12:51:45;16.92;43.59
70826;SHT31;58446;41.490;22.098;2024-03-08T12:54:12;16.55;43.44
70826;SHT31;58446;41.490;22.098;2024-03-08T12:56:37;16.42;43.55
70826;SHT31;58446;41.490;22.098;2024-03-08T12:59:04;16.18;43.51
70826;SHT31;58446;41.490;22.098;2024-03-08T13:01:31;15.90;43.60
70826;SHT31;58446;41.490;22.098;2024-03-08T13:04:03;15.86;45.07
70826;SHT31;58446;41.490;22.098;2024-03-08T13:06:29;15.85;43.38
70826;SHT31;58446;41.490;22.098;2024-03-08T13:08:56;15.48;44.26
70826;SHT31;58446;41.490;22.098;2024-03-08T13:11:24;15.34;45.09
70826;SHT31;58446;41.490;22.098;2024-03-08T13:13:51;15.25;45.19
70826;SHT31;58446;41.490;22.098;2024-03-08T13:16:18;15.49;45.54
70826;SHT31;58446;41.490;22.098;2024-03-08T13:18:45;15.85;46.12
70826;SHT31;58446;41.490;22.098;2024-03-08T13:21:15;16.20;44.13
70826;SHT31;58446;41.490;22.098;2024-03-08T13:23:43;16.06;43.91
70826;SHT31;58446;41.490;22.098;2024-03-08T13:26:15;16.14;43.98
70826;SHT31;58446;41.490;22.098;2024-03-08T13:28:45;16.32;44.84
70826;SHT31;58446;41.490;22.098;2024-03-08T13:31:11;16.47;42.08
70826;SHT31;58446;41.490;22.098;2024-03-08T13:33:38;16.52;41.30
70826;SHT31;58446;41.490;22.098;2024-03-08T13:36:08;16.58;42.11
70826;SHT31;58446;41.490;22.098;2024-03-08T13:38:49;16.62;42.85
70826;SHT31;58446;41.490;22.098;2024-03-08T13:41:15;16.61;42.99
70826;SHT31;58446;41.490;22.098;2024-03-08T13:43:45;16.75;42.58
70826;SHT31;58446;41.490;22.098;2024-03-08T13:46:11;16.51;43.36
70826;SHT31;58446;41.490;22.098;2024-03-08T13:48:37;16.78;43.91
70826;SHT31;58446;41.490;22.098;2024-03-08T13:51:04;16.92;41.96
70826;SHT31;58446;41.490;22.098;2024-03-08T13:53:31;16.99;42.08
70826;SHT31;58446;41.490;22.098;2024-03-08T13:55:58;16.93;42.66
70826;SHT31;58446;41.490;22.098;2024-03-08T13:58:26;16.95;42.03
70826;SHT31;58446;41.490;22.098;2024-03-08T14:00:51;17.06;42.35
70826;SHT31;58446;41.490;22.098;2024-03-08T14:03:17;17.06;41.66
70826;SHT31;58446;41.490;22.098;2024-03-08T14:05:43;17.16;41.50
70826;SHT31;58446;41.490;22.098;2024-03-08T14:08:10;17.17;41.28
70826;SHT31;58446;41.490;22.098;2024-03-08T14:10:38;16.90;42.12
70826;SHT31;58446;41.490;22.098;2024-03-08T14:13:04;16.51;42.61
70826;SHT31;58446;41.490;22.098;2024-03-08T14:15:34;16.59;41.08
70826;SHT31;58446;41.490;22.098;2024-03-08T14:18:00;16.49;41.51
70826;SHT31;58446;41.490;22.098;2024-03-08T14:20:27;16.69;41.39
70826;SHT31;58446;41.490;22.098;2024-03-08T14:22:56;16.88;42.29
70826;SHT31;58446;41.490;22.098;2024-03-08T14:25:22;16.89;43.05
70826;SHT31;58446;41.490;22.098;2024-03-08T14:27:52;16.90;41.81
70826;SHT31;58446;41.490;22.098;2024-03-08T14:30:23;16.75;42.80
70826;SHT31;58446;41.490;22.098;2024-03-08T14:33:00;16.54;42.93
70826;SHT31;58446;41.490;22.098;2024-03-08T14:35:26;16.65;43.20
70826;SHT31;58446;41.490;22.098;2024-03-08T14:37:53;16.73;42.85
70826;SHT31;58446;41.490;22.098;2024-03-08T14:40:18;16.75;42.88
70826;SHT31;58446;41.490;22.098;2024-03-08T14:42:48;16.67;42.58
70826;SHT31;58446;41.490;22.098;2024-03-08T14:45:15;16.78;42.05
70826;SHT31;58446;41.490;22.098;2024-03-08T14:47:41;16.76;41.15
70826;SHT31;58446;41.490;22.098;2024-03-08T14:50:08;16.83;40.30
70826;SHT31;58446;41.490;22.098;2024-03-08T14:52:37;16.71;42.22
70826;SHT31;58446;41.490;22.098;2024-03-08T14:55:05;16.73;41.71
70826;SHT31;58446;41.490;22.098;2024-03-08T14:57:32;16.40;41.31
70826;SHT31;58446;41.490;22.098;2024-03-08T14:59:58;16.35;41.16
70826;SHT31;58446;41.490;22.098;2024-03-08T15:02:31;16.42;40.18
70826;SHT31;58446;41.490;22.098;2024-03-08T15:05:04;16.42;42.10
70826;SHT31;58446;41.490;22.098;2024-03-08T15:07:34;16.47;40.85
70826;SHT31;58446;41.490;22.098;2024-03-08T15:10:00;16.59;41.00
70826;SHT31;58446;41.490;22.098;2024-03-08T15:12:26;16.57;41.15
70826;SHT31;58446;41.490;22.098;2024-03-08T15:14:54;16.42;41.60
70826;SHT31;58446;41.490;22.098;2024-03-08T15:17:21;16.44;41.32
70826;SHT31;58446;41.490;22.098;2024-03-08T15:19:48;16.45;41.61
70826;SHT31;58446;41.490;22.098;2024-03-08T15:22:14;16.41;41.70
70826;SHT31;58446;41.490;22.098;2024-03-08T15:24:43;16.38;41.99
70826;SHT31;58446;41.490;22.098;2024-03-08T15:27:09;16.37;42.13
70826;SHT31;58446;41.490;22.098;2024-03-08T15:29:35;16.16;41.98
70826;SHT31;58446;41.490;22.098;2024-03-08T15:32:02;16.10;41.78
70826;SHT31;58446;41.490;22.098;2024-03-08T15:34:28;16.18;41.35
70826;SHT31;58446;41.490;22.098;2024-03-08T15:36:54;16.08;41.87
70826;SHT31;58446;41.490;22.098;2024-03-08T15:39:20;16.13;42.03
70826;SHT31;58446;41.490;22.098;2024-03-08T15:41:49;15.97;41.59